Time;durP1;ratioP1;P1;durP2;ratioP2;P2;SDS_P1;SDS_P2;PMS_P1;PMS_P2;Temp;Humidity;BMP_temperature;BMP_pressure;BME280_temperature;BME280_humidity;BME280_pressure;Samples;Min_cycle;Max_cycle;Signal;HPM_P1;HPM_P2
2021/04/14 00:00:56;;;;;;;5.20;3.40;;;5.60;99.90;;;;;;5073284;28;20198;-77
2021/04/14 00:03:25;;;;;;;4.27;3.67;;;5.60;99.90;;;;;;5072649;28;20173;-76
2021/04/14 00:05:51;;;;;;;4.20;3.80;;;5.60;99.90;;;;;;5091988;28;20419;-76
2021/04/14 00:08:17;;;;;;;5.07;4.00;;;5.60;99.90;;;;;;5092002;28;20411;-77
2021/04/14 00:10:43;;;;;;;7.20;3.23;;;5.60;99.90;;;;;;5092625;28;20508;-76
2021/04/14 00:13:13;;;;;;;4.77;3.33;;;5.50;99.90;;;;;;5089630;28;20189;-77
2021/04/14 00:15:43;;;;;;;7.90;3.43;;;5.50;99.90;;;;;;5076533;28;20909;-77
2021/04/14 00:18:09;;;;;;;4.07;3.00;;;5.50;99.90;;;;;;5072240;28;20413;-77
2021/04/14 00:20:36;;;;;;;4.57;3.03;;;5.40;99.90;;;;;;5073859;28;20415;-77
2021/04/14 00:23:03;;;;;;;11.23;4.17;;;5.40;99.90;;;;;;5072190;28;20862;-77
2021/04/14 00:25:32;;;;;;;4.23;3.33;;;5.40;99.90;;;;;;5093922;28;20407;-76
2021/04/14 00:27:58;;;;;;;4.10;3.23;;;5.20;99.90;;;;;;5092053;28;20408;-77
2021/04/14 00:30:25;;;;;;;7.00;4.03;;;5.10;99.90;;;;;;5091710;28;20508;-76
2021/04/14 00:32:51;;;;;;;7.20;3.40;;;5.10;99.90;;;;;;5072998;28;20450;-76
2021/04/14 00:35:22;;;;;;;5.33;3.77;;;5.10;99.90;;;;;;5086916;28;20424;-77
2021/04/14 00:37:48;;;;;;;7.80;3.20;;;5.00;99.90;;;;;;5076690;28;20944;-76
2021/04/14 00:40:20;;;;;;;5.20;3.60;;;5.00;99.90;;;;;;5091717;28;20818;-76
2021/04/14 00:42:46;;;;;;;3.93;3.13;;;4.90;99.90;;;;;;5090354;28;20403;-76
2021/04/14 00:45:12;;;;;;;16.37;3.50;;;4.80;99.90;;;;;;5073273;28;20844;-77
2021/04/14 00:47:38;;;;;;;5.33;2.80;;;4.80;99.90;;;;;;5087907;28;20219;-78
2021/04/14 00:50:09;;;;;;;7.53;2.90;;;4.70;99.90;;;;;;5086087;28;20455;-77
2021/04/14 00:52:35;;;;;;;7.03;3.03;;;4.70;99.90;;;;;;5084242;28;20185;-77
2021/04/14 00:55:00;;;;;;;5.67;3.70;;;4.60;99.90;;;;;;5087361;28;20412;-77
2021/04/14 00:57:26;;;;;;;4.83;3.20;;;4.60;99.90;;;;;;5094238;28;20197;-77
2021/04/14 00:59:51;;;;;;;3.70;3.20;;;4.60;99.90;;;;;;5092699;28;20180;-77
2021/04/14 01:02:17;;;;;;;4.43;3.00;;;4.50;99.90;;;;;;5083020;28;20194;-76
2021/04/14 01:04:43;;;;;;;4.07;2.90;;;4.50;99.90;;;;;;5073632;28;20178;-77
2021/04/14 01:07:08;;;;;;;4.00;3.10;;;4.40;99.90;;;;;;5092828;28;20188;-77
2021/04/14 01:09:34;;;;;;;7.50;4.43;;;4.40;99.90;;;;;;5089598;28;20526;-77
2021/04/14 01:12:00;;;;;;;8.77;4.33;;;4.30;99.90;;;;;;5093337;28;20696;-77
2021/04/14 01:14:26;;;;;;;7.30;4.77;;;4.30;99.90;;;;;;5081557;28;20246;-77
2021/04/14 01:16:51;;;;;;;7.37;4.37;;;4.30;99.90;;;;;;5082279;28;20459;-77
2021/04/14 01:19:17;;;;;;;5.60;4.50;;;4.20;99.90;;;;;;5097948;28;20173;-77
2021/04/14 01:21:43;;;;;;;5.43;3.60;;;4.30;99.90;;;;;;5081475;28;20689;-77
2021/04/14 01:24:11;;;;;;;4.43;3.77;;;4.20;99.90;;;;;;5086360;28;20428;-76
2021/04/14 01:26:37;;;;;;;10.30;3.37;;;4.20;99.90;;;;;;5093304;28;20800;-76
2021/04/14 01:29:04;;;;;;;8.17;3.20;;;4.20;99.90;;;;;;5076378;28;20427;-77
2021/04/14 01:31:33;;;;;;;5.50;3.23;;;4.10;99.90;;;;;;5076526;28;20198;-77
2021/04/14 01:34:16;;;;;;;4.23;2.47;;;4.20;99.90;;;;;;5081005;28;20435;-76
2021/04/14 01:36:42;;;;;;;5.63;2.90;;;4.20;99.90;;;;;;5093615;28;20433;-75
2021/04/14 01:39:10;;;;;;;4.50;2.60;;;4.10;99.90;;;;;;5094826;28;20827;-76
2021/04/14 01:41:37;;;;;;;5.80;3.10;;;4.10;99.90;;;;;;5094770;28;20434;-76
2021/04/14 01:44:04;;;;;;;2.60;2.40;;;4.00;99.90;;;;;;5085690;28;20423;-76
2021/04/14 01:46:31;;;;;;;5.17;2.77;;;4.10;99.90;;;;;;5090278;28;20998;-76
2021/04/14 01:48:56;;;;;;;5.10;2.20;;;4.10;99.90;;;;;;5081359;28;20481;-76
2021/04/14 01:51:22;;;;;;;6.60;2.90;;;4.10;99.90;;;;;;5075722;28;20436;-76
2021/04/14 01:53:48;;;;;;;4.70;2.80;;;4.10;99.90;;;;;;5094801;28;20188;-77
2021/04/14 01:56:14;;;;;;;5.60;2.23;;;4.10;99.90;;;;;;5081736;28;20166;-76
2021/04/14 01:58:40;;;;;;;4.97;3.00;;;4.10;99.90;;;;;;5076381;28;20447;-76
2021/04/14 02:01:07;;;;;;;3.33;2.20;;;4.10;99.90;;;;;;5089722;28;20182;-76
2021/04/14 02:03:36;;;;;;;7.87;4.30;;;4.10;99.90;;;;;;5077234;28;20423;-76
2021/04/14 02:06:01;;;;;;;4.70;3.00;;;4.10;99.90;;;;;;5094596;28;20423;-77
2021/04/14 02:08:27;;;;;;;4.20;2.70;;;4.10;99.90;;;;;;5096313;28;20907;-76
2021/04/14 02:10:53;;;;;;;4.33;2.50;;;4.10;99.90;;;;;;5095765;28;20214;-76
2021/04/14 02:13:24;;;;;;;5.30;2.70;;;4.10;99.90;;;;;;5078759;28;20539;-76
2021/04/14 02:15:50;;;;;;;7.23;3.00;;;4.10;99.90;;;;;;5073771;28;20423;-75
2021/04/14 02:18:17;;;;;;;6.53;2.60;;;4.10;99.90;;;;;;5073977;28;20419;-75
2021/04/14 02:20:42;;;;;;;7.03;2.53;;;4.20;99.90;;;;;;5077791;28;20443;-75
2021/04/14 02:23:28;;;;;;;3.27;2.97;;;4.10;99.90;;;;;;5087761;28;20937;-77
2021/04/14 02:26:00;;;;;;;3.43;2.73;;;4.10;99.90;;;;;;5063448;28;20239;-79
2021/04/14 02:28:26;;;;;;;4.27;3.10;;;4.10;99.90;;;;;;5079434;28;20410;-77
2021/04/14 02:30:52;;;;;;;3.40;2.23;;;4.10;99.90;;;;;;5061753;28;20457;-76
2021/04/14 02:33:18;;;;;;;4.13;3.70;;;4.10;99.90;;;;;;5064164;28;20416;-77
2021/04/14 02:35:44;;;;;;;6.70;3.43;;;4.00;99.90;;;;;;5088228;28;20430;-77
2021/04/14 02:38:11;;;;;;;11.57;7.13;;;3.90;99.90;;;;;;5090901;28;20520;-77
2021/04/14 02:40:38;;;;;;;10.27;5.37;;;3.90;99.90;;;;;;5058103;28;20825;-77
2021/04/14 02:43:04;;;;;;;7.43;4.40;;;3.90;99.90;;;;;;5060094;28;20420;-77
2021/04/14 02:45:33;;;;;;;3.30;2.67;;;3.90;99.90;;;;;;5073984;28;20466;-79
2021/04/14 02:47:59;;;;;;;4.00;2.90;;;3.80;99.90;;;;;;5089913;28;20424;-77
2021/04/14 02:50:25;;;;;;;6.43;4.17;;;3.80;99.90;;;;;;5064918;28;21072;-77
2021/04/14 02:52:51;;;;;;;3.40;2.83;;;3.80;99.90;;;;;;5053523;28;20538;-79
2021/04/14 02:55:18;;;;;;;5.97;3.17;;;3.70;99.90;;;;;;5057628;28;20166;-77
2021/04/14 02:57:44;;;;;;;6.03;3.63;;;3.70;99.90;;;;;;5059413;28;20456;-76
2021/04/14 03:00:11;;;;;;;5.70;3.20;;;3.60;99.90;;;;;;5075669;28;20431;-77
2021/04/14 03:02:37;;;;;;;3.93;2.50;;;3.60;99.90;;;;;;5091982;28;20531;-77
2021/04/14 03:05:08;;;;;;;5.13;2.47;;;3.70;99.90;;;;;;5075862;28;20487;-77
2021/04/14 03:07:34;;;;;;;4.47;2.63;;;3.70;99.90;;;;;;5075373;28;20952;-78
2021/04/14 03:10:00;;;;;;;3.80;2.63;;;3.70;99.90;;;;;;5079663;28;20456;-77
2021/04/14 03:12:25;;;;;;;5.27;2.70;;;3.60;99.90;;;;;;5071003;28;20483;-78
2021/04/14 03:14:51;;;;;;;7.57;4.80;;;3.60;99.90;;;;;;5056538;28;20253;-77
2021/04/14 03:17:17;;;;;;;8.03;5.87;;;3.60;99.90;;;;;;5078562;28;20183;-77
2021/04/14 03:19:42;;;;;;;4.33;3.63;;;3.50;99.90;;;;;;5076146;28;20173;-76
2021/04/14 03:22:08;;;;;;;3.60;2.77;;;3.40;99.90;;;;;;5084805;28;20201;-77
2021/04/14 03:24:34;;;;;;;2.50;2.30;;;3.30;99.90;;;;;;5095041;28;20173;-78
2021/04/14 03:26:59;;;;;;;3.80;2.50;;;3.30;99.90;;;;;;5090763;28;20262;-77
2021/04/14 03:29:25;;;;;;;5.87;2.90;;;3.20;99.90;;;;;;5074046;28;20276;-77
2021/04/14 03:31:50;;;;;;;4.60;3.10;;;3.20;99.90;;;;;;5079699;28;20190;-77
2021/04/14 03:34:16;;;;;;;3.10;2.90;;;3.10;99.90;;;;;;5078467;28;20190;-78
2021/04/14 03:36:42;;;;;;;6.43;3.40;;;3.10;99.90;;;;;;5095728;28;20170;-78
2021/04/14 03:39:08;;;;;;;4.10;3.10;;;3.10;99.90;;;;;;5076095;28;20177;-78
2021/04/14 03:41:34;;;;;;;6.43;2.93;;;3.00;99.90;;;;;;5092955;28;20261;-78
2021/04/14 03:44:00;;;;;;;4.10;2.83;;;3.00;99.90;;;;;;5091728;28;20175;-78
2021/04/14 03:46:26;;;;;;;4.33;2.40;;;2.90;99.90;;;;;;5092911;28;20839;-77
2021/04/14 03:48:53;;;;;;;4.03;2.57;;;2.90;99.90;;;;;;5081039;28;20967;-77
2021/04/14 03:51:20;;;;;;;3.87;2.70;;;2.80;99.90;;;;;;5083574;28;20499;-77
2021/04/14 03:53:46;;;;;;;6.17;2.67;;;2.80;99.90;;;;;;5084611;28;20445;-77
2021/04/14 03:56:16;;;;;;;5.03;3.03;;;2.80;99.90;;;;;;5089666;28;20434;-77
2021/04/14 03:58:45;;;;;;;5.03;3.13;;;2.80;99.90;;;;;;5092009;28;20447;-77
2021/04/14 04:01:14;;;;;;;6.10;2.70;;;2.80;99.90;;;;;;5076431;28;20436;-77
2021/04/14 04:03:39;;;;;;;6.47;2.80;;;2.70;99.90;;;;;;5072280;28;20420;-77
2021/04/14 04:06:05;;;;;;;14.80;7.80;;;2.70;99.90;;;;;;5072576;28;20428;-78
2021/04/14 04:08:31;;;;;;;7.87;4.63;;;2.70;99.90;;;;;;5091183;28;20425;-78
2021/04/14 04:10:57;;;;;;;11.90;7.90;;;2.70;99.90;;;;;;5083526;28;20216;-77
2021/04/14 04:13:23;;;;;;;18.60;9.90;;;2.60;99.90;;;;;;5072187;28;20625;-77
2021/04/14 04:15:48;;;;;;;11.50;4.80;;;2.60;99.90;;;;;;5084745;28;20773;-77
2021/04/14 04:18:14;;;;;;;5.87;4.17;;;2.50;99.90;;;;;;5082153;28;20509;-78
2021/04/14 04:20:40;;;;;;;3.23;2.53;;;2.50;99.90;;;;;;5074754;28;20197;-78
2021/04/14 04:23:07;;;;;;;3.03;2.67;;;2.40;99.90;;;;;;5077247;28;20183;-78
2021/04/14 04:25:33;;;;;;;3.67;3.13;;;2.40;99.90;;;;;;5076297;28;20503;-78
2021/04/14 04:27:59;;;;;;;4.60;3.57;;;2.40;99.90;;;;;;5074346;28;20487;-78
2021/04/14 04:30:26;;;;;;;7.30;3.20;;;2.40;99.90;;;;;;5073968;28;20466;-78
2021/04/14 04:32:52;;;;;;;2.60;2.40;;;2.40;99.90;;;;;;5073208;28;20428;-77
2021/04/14 04:35:19;;;;;;;3.57;2.70;;;2.30;99.90;;;;;;5071976;28;20502;-77
2021/04/14 04:37:44;;;;;;;9.03;2.60;;;2.30;99.90;;;;;;5068402;28;20470;-77
2021/04/14 04:40:11;;;;;;;3.90;2.70;;;2.20;99.90;;;;;;5073064;28;21009;-77
2021/04/14 04:42:36;;;;;;;5.77;2.80;;;2.20;99.90;;;;;;5077144;28;20685;-78
2021/04/14 04:45:06;;;;;;;5.03;2.33;;;2.10;99.90;;;;;;5078904;28;20428;-77
2021/04/14 04:47:31;;;;;;;3.53;2.90;;;2.10;99.90;;;;;;5085751;28;20174;-77
2021/04/14 04:49:57;;;;;;;5.10;3.20;;;2.00;99.90;;;;;;5097714;28;20457;-78
2021/04/14 04:52:23;;;;;;;4.13;2.70;;;2.00;99.90;;;;;;5096788;28;20590;-78
2021/04/14 04:54:48;;;;;;;5.97;3.77;;;2.10;99.90;;;;;;5098400;28;20164;-78
2021/04/14 04:57:14;;;;;;;3.67;3.37;;;2.10;99.90;;;;;;5096397;28;20172;-77
2021/04/14 04:59:40;;;;;;;6.63;3.47;;;2.20;99.90;;;;;;5096505;28;20187;-78
2021/04/14 05:02:05;;;;;;;5.17;3.40;;;2.20;99.90;;;;;;5096781;28;20226;-78
2021/04/14 05:04:31;;;;;;;3.90;3.13;;;2.10;99.90;;;;;;5097018;28;20184;-78
2021/04/14 05:06:56;;;;;;;8.63;3.30;;;2.20;99.90;;;;;;5093920;28;20659;-77
2021/04/14 05:09:22;;;;;;;6.47;3.83;;;2.30;99.90;;;;;;5093726;28;20286;-77
2021/04/14 05:11:48;;;;;;;5.43;3.70;;;2.20;99.90;;;;;;5095758;28;20268;-77
2021/04/14 05:14:14;;;;;;;5.97;3.87;;;2.40;99.90;;;;;;5095461;28;20420;-77
2021/04/14 05:16:40;;;;;;;4.97;3.40;;;2.50;99.90;;;;;;5095676;28;20161;-77
2021/04/14 05:19:06;;;;;;;7.67;5.73;;;2.50;99.90;;;;;;5088102;28;20419;-77
2021/04/14 05:21:33;;;;;;;21.13;12.97;;;2.50;99.90;;;;;;5085757;28;20440;-77
2021/04/14 05:23:59;;;;;;;4.93;3.80;;;2.60;99.90;;;;;;5067199;28;20420;-77
2021/04/14 05:26:26;;;;;;;10.10;4.20;;;2.80;99.90;;;;;;5076827;28;21199;-78
2021/04/14 05:28:51;;;;;;;9.00;3.70;;;3.00;99.90;;;;;;5087453;28;20200;-78
2021/04/14 05:31:17;;;;;;;8.37;3.67;;;3.10;99.90;;;;;;5074949;28;20968;-78
2021/04/14 05:33:43;;;;;;;4.93;3.00;;;3.20;99.90;;;;;;5073321;28;20174;-78
2021/04/14 05:36:08;;;;;;;6.90;3.90;;;3.30;99.90;;;;;;5085636;28;20256;-78
2021/04/14 05:38:34;;;;;;;5.40;3.40;;;3.40;99.90;;;;;;5096614;28;20183;-78
2021/04/14 05:41:00;;;;;;;3.60;3.03;;;3.40;99.90;;;;;;5079621;28;20614;-78
2021/04/14 05:43:39;;;;;;;7.43;3.83;;;3.50;99.90;;;;;;5084509;28;20176;-78
2021/04/14 05:46:10;;;;;;;10.13;3.77;;;3.60;99.90;;;;;;5097073;28;20773;-78
2021/04/14 05:48:37;;;;;;;4.07;3.03;;;3.80;99.90;;;;;;5095877;28;20928;-78
2021/04/14 05:51:06;;;;;;;5.57;4.63;;;3.80;99.90;;;;;;5093043;28;20497;-78
2021/04/14 05:53:33;;;;;;;4.70;3.07;;;3.90;99.90;;;;;;5086528;28;20843;-78
2021/04/14 05:56:00;;;;;;;5.70;3.40;;;4.00;99.90;;;;;;5095427;28;20427;-78
2021/04/14 05:58:26;;;;;;;7.53;2.83;;;4.00;99.90;;;;;;5091161;28;20431;-78
2021/04/14 06:00:52;;;;;;;4.30;2.87;;;4.20;99.90;;;;;;5076277;28;20437;-78
2021/04/14 06:03:17;;;;;;;3.17;2.73;;;4.20;99.90;;;;;;5076602;28;20405;-78
2021/04/14 06:05:43;;;;;;;7.70;4.10;;;4.30;99.90;;;;;;5075562;28;20245;-77
2021/04/14 06:08:09;;;;;;;4.60;2.63;;;4.40;99.90;;;;;;5079735;28;20189;-78
2021/04/14 06:10:34;;;;;;;6.90;3.30;;;4.60;99.90;;;;;;5090176;28;20202;-77
2021/04/14 06:13:00;;;;;;;3.90;3.00;;;4.90;99.90;;;;;;5073134;28;20174;-77
2021/04/14 06:15:32;;;;;;;5.23;3.60;;;5.10;99.90;;;;;;5075216;28;20654;-78
2021/04/14 06:17:58;;;;;;;9.53;4.57;;;5.30;99.90;;;;;;5075235;28;20182;-78
2021/04/14 06:20:26;;;;;;;6.37;4.03;;;5.40;99.90;;;;;;5074867;28;20412;-78
2021/04/14 06:22:52;;;;;;;4.80;2.87;;;5.60;99.90;;;;;;5080169;28;20447;-78
2021/04/14 06:25:20;;;;;;;8.23;3.50;;;5.80;99.90;;;;;;5072428;28;20427;-77
2021/04/14 06:30:27;;;;;;;9.40;4.43;;;6.40;99.90;;;;;;5067587;28;20468;-78
2021/04/14 06:32:53;;;;;;;6.43;4.40;;;6.80;99.90;;;;;;5072533;28;20966;-79
2021/04/14 06:35:21;;;;;;;7.27;4.23;;;7.10;99.90;;;;;;5081385;28;20201;-79
2021/04/14 06:37:47;;;;;;;5.80;3.37;;;7.60;99.90;;;;;;5096630;28;20170;-80
2021/04/14 06:42:55;;;;;;;6.37;3.80;;;8.40;99.90;;;;;;5077562;28;20230;-79
2021/04/14 06:45:27;;;;;;;6.30;5.10;;;8.40;99.90;;;;;;5079859;28;20530;-78
2021/04/14 06:48:25;;;;;;;6.73;4.50;;;8.30;99.90;;;;;;5069591;28;20410;-78
2021/04/14 06:51:39;;;;;;;7.83;4.37;;;8.90;99.90;;;;;;5031781;28;21023;-78
2021/04/14 06:54:29;;;;;;;8.13;5.20;;;9.60;99.90;;;;;;5057431;28;20808;-78
2021/04/14 06:56:59;;;;;;;10.07;5.67;;;10.20;99.90;;;;;;5071045;28;20423;-80
2021/04/14 06:59:26;;;;;;;6.50;4.83;;;10.60;99.90;;;;;;5076834;28;20408;-80
2021/04/14 07:02:08;;;;;;;5.77;4.40;;;11.50;99.90;;;;;;5101298;28;20960;-81
2021/04/14 07:05:17;;;;;;;7.00;3.67;;;12.50;99.90;;;;;;5104032;28;20411;-81
2021/04/14 07:07:45;;;;;;;8.07;4.40;;;13.00;99.90;;;;;;5005893;28;20443;-81
2021/04/14 07:10:39;;;;;;;6.07;4.03;;;13.60;98.10;;;;;;5087867;28;20202;-82
2021/04/14 07:13:26;;;;;;;4.43;3.60;;;13.90;96.20;;;;;;5087641;28;20421;-81
2021/04/14 07:16:17;;;;;;;4.23;3.83;;;14.00;91.00;;;;;;5078501;28;20485;-81
2021/04/14 07:18:55;;;;;;;5.53;4.27;;;13.40;88.90;;;;;;5092780;28;20454;-80
2021/04/14 07:21:25;;;;;;;8.47;5.10;;;13.70;92.30;;;;;;5098108;28;20429;-80
2021/04/14 07:23:56;;;;;;;6.70;3.43;;;14.40;90.50;;;;;;5082688;28;20400;-79
2021/04/14 07:26:43;;;;;;;10.00;4.57;;;15.00;88.50;;;;;;5083276;28;20417;-80
2021/04/14 07:29:11;;;;;;;8.63;4.33;;;15.70;85.00;;;;;;5077272;28;20431;-79
2021/04/14 07:31:42;;;;;;;11.20;5.97;;;16.30;80.60;;;;;;5075787;28;20431;-77
2021/04/14 07:34:29;;;;;;;9.27;4.73;;;16.10;78.70;;;;;;5079355;28;20408;-77
2021/04/14 07:37:05;;;;;;;10.87;5.90;;;15.80;78.90;;;;;;5093609;28;20946;-78
2021/04/14 07:40:02;;;;;;;6.20;5.53;;;15.40;78.50;;;;;;5076565;28;20442;-77
2021/04/14 07:42:42;;;;;;;11.00;5.33;;;15.30;78.00;;;;;;5071542;28;20436;-77
2021/04/14 07:45:22;;;;;;;8.70;6.23;;;14.80;72.50;;;;;;5082067;28;20465;-82
2021/04/14 07:47:52;;;;;;;14.60;6.13;;;15.40;82.00;;;;;;5076193;28;20418;-79
2021/04/14 07:50:31;;;;;;;10.30;5.80;;;15.80;80.10;;;;;;5075801;28;20531;-78
2021/04/14 07:52:57;;;;;;;10.43;6.83;;;16.00;73.20;;;;;;5078415;28;20511;-78
2021/04/14 07:55:33;;;;;;;8.87;5.67;;;15.40;71.20;;;;;;5078986;28;20449;-78
2021/04/14 07:58:08;;;;;;;9.30;5.63;;;15.20;72.30;;;;;;5066417;28;20660;-78
2021/04/14 08:00:37;;;;;;;13.57;7.70;;;14.40;75.40;;;;;;5072350;28;20442;-79
2021/04/14 08:03:12;;;;;;;10.70;6.87;;;14.10;78.80;;;;;;5081857;28;20423;-80
2021/04/14 08:05:37;;;;;;;13.37;7.27;;;13.80;80.80;;;;;;5085810;28;20434;-82
2021/04/14 08:08:15;;;;;;;15.67;7.60;;;13.30;84.00;;;;;;5097083;28;20439;-81
2021/04/14 08:10:40;;;;;;;11.83;6.20;;;13.20;90.10;;;;;;5085503;28;20224;-81
2021/04/14 08:13:08;;;;;;;7.63;5.87;;;12.90;90.20;;;;;;5074996;28;20401;-81
2021/04/14 08:15:47;;;;;;;9.70;6.10;;;13.00;94.00;;;;;;5074653;28;20173;-81
2021/04/14 08:18:30;;;;;;;13.60;7.50;;;13.30;92.10;;;;;;5055183;28;20466;-81
2021/04/14 08:21:23;;;;;;;9.50;4.60;;;13.90;91.30;;;;;;5050812;28;20971;-79
2021/04/14 08:24:03;;;;;;;7.80;4.97;;;14.10;85.00;;;;;;5060366;28;20956;-78
2021/04/14 08:26:29;;;;;;;9.60;4.60;;;14.40;84.10;;;;;;5050715;28;20409;-78
2021/04/14 08:29:09;;;;;;;9.60;4.27;;;14.70;82.00;;;;;;5071126;28;20916;-77
2021/04/14 08:31:48;;;;;;;10.77;4.30;;;15.00;76.60;;;;;;5071662;28;20416;-78
2021/04/14 08:34:22;;;;;;;8.13;4.33;;;15.30;77.60;;;;;;5071932;28;20400;-78
2021/04/14 08:36:50;;;;;;;6.50;5.40;;;15.50;71.80;;;;;;5071997;28;20530;-78
2021/04/14 08:39:21;;;;;;;6.40;5.30;;;15.50;72.10;;;;;;5075612;28;20401;-79
2021/04/14 08:41:47;;;;;;;11.60;5.83;;;15.10;74.20;;;;;;5077002;28;20464;-77
2021/04/14 08:44:17;;;;;;;9.30;5.60;;;14.60;78.30;;;;;;5093782;28;20407;-79
2021/04/14 08:46:44;;;;;;;9.93;6.87;;;14.10;80.90;;;;;;5094459;28;20916;-78
2021/04/14 08:49:23;;;;;;;9.70;6.17;;;13.80;80.90;;;;;;5076254;28;20412;-80
2021/04/14 08:51:52;;;;;;;9.00;5.70;;;13.60;83.40;;;;;;5077402;28;20428;-76
2021/04/14 08:54:26;;;;;;;11.03;6.30;;;13.40;85.10;;;;;;5082132;28;20176;-76
2021/04/14 08:56:54;;;;;;;7.83;4.37;;;13.40;89.20;;;;;;5093994;28;20478;-77
2021/04/14 08:59:21;;;;;;;7.40;6.40;;;13.70;99.90;;;;;;5079364;28;20420;-77
2021/04/14 09:01:48;;;;;;;11.10;5.73;;;14.50;95.30;;;;;;5091223;28;20932;-76
2021/04/14 09:04:13;;;;;;;9.33;5.33;;;14.80;88.10;;;;;;5072694;28;20416;-76
2021/04/14 09:06:43;;;;;;;8.20;5.97;;;15.10;89.20;;;;;;5071505;28;20769;-76
2021/04/14 09:09:17;;;;;;;6.77;5.83;;;15.60;89.00;;;;;;5071522;28;20789;-75
2021/04/14 09:11:44;;;;;;;13.27;6.80;;;15.80;86.50;;;;;;5071389;28;20420;-78
2021/04/14 09:14:23;;;;;;;7.03;5.70;;;15.90;82.90;;;;;;5074777;28;20994;-76
2021/04/14 09:16:51;;;;;;;11.30;8.07;;;16.30;79.20;;;;;;5070900;28;20415;-77
2021/04/14 09:19:45;;;;;;;12.20;7.23;;;16.50;76.90;;;;;;5075066;28;20413;-77
2021/04/14 09:22:20;;;;;;;11.83;7.77;;;16.40;77.40;;;;;;5070590;28;20452;-76
2021/04/14 09:24:54;;;;;;;10.57;7.37;;;16.60;74.60;;;;;;5071227;28;20408;-76
2021/04/14 09:27:35;;;;;;;8.03;6.40;;;16.90;72.40;;;;;;5070881;28;20974;-77
2021/04/14 09:30:10;;;;;;;9.63;6.23;;;16.70;72.20;;;;;;5062637;28;20453;-76
2021/04/14 09:32:56;;;;;;;6.20;5.60;;;16.90;74.50;;;;;;5072149;28;20432;-76
2021/04/14 09:35:40;;;;;;;6.77;6.17;;;16.50;66.40;;;;;;5066143;28;20414;-76
2021/04/14 09:38:25;;;;;;;8.83;5.30;;;16.30;69.30;;;;;;5074393;28;21074;-76
2021/04/14 09:40:54;;;;;;;6.00;4.57;;;15.90;67.30;;;;;;5073278;28;20515;-76
2021/04/14 09:43:25;;;;;;;8.47;7.67;;;15.90;68.00;;;;;;5081775;28;20432;-78
2021/04/14 09:46:03;;;;;;;9.60;8.63;;;15.00;68.50;;;;;;5073403;28;20447;-77
2021/04/14 09:48:49;;;;;;;10.40;9.30;;;14.90;72.90;;;;;;5071965;28;20553;-77
2021/04/14 09:51:23;;;;;;;11.47;10.33;;;15.00;75.20;;;;;;5074295;28;20467;-77
2021/04/14 09:53:52;;;;;;;10.50;9.40;;;15.00;75.10;;;;;;5074767;28;20768;-76
2021/04/14 09:56:22;;;;;;;12.07;8.80;;;15.40;74.30;;;;;;5072556;28;20423;-76
2021/04/14 09:59:11;;;;;;;12.93;8.30;;;15.60;75.50;;;;;;5061760;28;20873;-77
2021/04/14 10:01:39;;;;;;;8.63;7.77;;;15.70;72.30;;;;;;5059720;28;20437;-77
2021/04/14 10:04:17;;;;;;;9.70;7.93;;;15.40;68.30;;;;;;5082115;28;20415;-76
2021/04/14 10:06:43;;;;;;;8.03;6.97;;;15.40;68.00;;;;;;5073473;28;20788;-79
2021/04/14 10:09:21;;;;;;;7.90;7.10;;;15.70;66.80;;;;;;5074503;28;20572;-78
2021/04/14 10:11:47;;;;;;;7.97;6.03;;;16.20;66.90;;;;;;5089731;28;21023;-78
2021/04/14 10:14:19;;;;;;;8.33;6.93;;;16.70;62.90;;;;;;5093972;28;20494;-78
2021/04/14 10:16:46;;;;;;;10.13;7.10;;;17.00;61.60;;;;;;5078458;28;20176;-79
2021/04/14 10:19:29;;;;;;;9.17;7.03;;;17.20;59.40;;;;;;5074457;28;20405;-78
2021/04/14 10:21:54;;;;;;;8.03;7.20;;;17.20;58.60;;;;;;5073532;28;20485;-78
2021/04/14 10:24:23;;;;;;;9.83;8.07;;;17.60;58.80;;;;;;5073298;28;20968;-78
2021/04/14 10:26:54;;;;;;;13.13;7.67;;;17.50;55.90;;;;;;5074872;28;20173;-78
2021/04/14 10:29:26;;;;;;;8.30;7.33;;;17.70;54.70;;;;;;5074216;28;20422;-78
2021/04/14 10:31:56;;;;;;;8.77;6.90;;;17.90;53.50;;;;;;5074510;28;20478;-78
2021/04/14 10:34:29;;;;;;;13.47;8.50;;;18.10;53.10;;;;;;5086482;28;20443;-78
2021/04/14 10:36:55;;;;;;;8.30;6.23;;;18.00;50.90;;;;;;5094882;28;20446;-78
2021/04/14 10:39:33;;;;;;;8.10;5.63;;;18.40;53.10;;;;;;5092433;28;20457;-78
2021/04/14 10:42:12;;;;;;;8.00;6.50;;;18.50;55.60;;;;;;5089346;28;20428;-78
2021/04/14 10:44:38;;;;;;;11.63;6.30;;;18.70;50.40;;;;;;5073802;28;20839;-77
2021/04/14 10:47:16;;;;;;;8.13;6.93;;;19.00;51.90;;;;;;5073910;28;20385;-78
2021/04/14 10:49:42;;;;;;;11.93;7.10;;;19.10;50.60;;;;;;5074361;28;20311;-77
2021/04/14 10:52:23;;;;;;;11.17;6.07;;;19.40;46.70;;;;;;5064943;28;20467;-77
2021/04/14 10:54:53;;;;;;;9.97;6.60;;;19.70;48.10;;;;;;5072439;28;20412;-77
2021/04/14 10:57:34;;;;;;;8.33;7.40;;;19.90;48.40;;;;;;5073452;28;20408;-78
2021/04/14 11:00:06;;;;;;;8.33;6.80;;;19.60;48.10;;;;;;5073317;28;20420;-78
2021/04/14 11:02:36;;;;;;;11.37;8.23;;;19.80;44.60;;;;;;5073457;28;20486;-78
2021/04/14 11:05:04;;;;;;;9.63;8.53;;;19.70;46.00;;;;;;5084506;28;20415;-78
2021/04/14 11:07:32;;;;;;;14.63;9.97;;;19.80;46.70;;;;;;5087884;28;20420;-78
2021/04/14 11:10:01;;;;;;;8.40;7.13;;;19.80;45.10;;;;;;5073098;28;20456;-78
2021/04/14 11:12:28;;;;;;;9.33;8.10;;;20.50;47.60;;;;;;5073201;28;20912;-78
2021/04/14 11:15:01;;;;;;;8.07;7.27;;;20.90;46.00;;;;;;5073370;28;20773;-78
2021/04/14 11:17:30;;;;;;;7.53;6.80;;;20.70;45.40;;;;;;5073123;28;20765;-78
2021/04/14 11:20:16;;;;;;;8.03;7.30;;;20.70;43.60;;;;;;5073987;28;20420;-77
2021/04/14 11:22:46;;;;;;;10.70;9.43;;;20.60;43.00;;;;;;5069724;28;20444;-78
2021/04/14 11:25:22;;;;;;;9.83;8.93;;;20.70;43.70;;;;;;5072167;28;20403;-78
2021/04/14 11:28:02;;;;;;;10.20;9.10;;;20.50;41.70;;;;;;5070870;28;20784;-78
2021/04/14 11:30:29;;;;;;;12.17;10.97;;;19.70;42.90;;;;;;5071087;28;20967;-78
2021/04/14 11:32:58;;;;;;;9.80;8.90;;;19.30;42.50;;;;;;5072273;28;20412;-78
2021/04/14 11:35:34;;;;;;;11.53;8.77;;;19.30;42.30;;;;;;5081438;28;20963;-79
2021/04/14 11:37:59;;;;;;;11.80;8.20;;;18.90;42.00;;;;;;5070736;28;20416;-78
2021/04/14 11:40:38;;;;;;;10.00;9.00;;;18.30;40.90;;;;;;5080636;28;20427;-79
2021/04/14 11:43:30;;;;;;;11.73;8.60;;;18.40;42.90;;;;;;5092214;28;20191;-79
2021/04/14 11:46:04;;;;;;;9.97;7.73;;;18.70;44.60;;;;;;5077840;28;20444;-79
2021/04/14 11:48:34;;;;;;;9.10;7.83;;;18.90;47.60;;;;;;5073608;28;20431;-79
2021/04/14 11:51:15;;;;;;;9.60;8.60;;;18.20;48.40;;;;;;5083627;28;20847;-79
2021/04/14 11:53:54;;;;;;;9.87;8.87;;;17.40;49.00;;;;;;5067242;28;20443;-80
2021/04/14 11:56:30;;;;;;;9.73;8.50;;;17.00;50.00;;;;;;5080652;28;20468;-79
2021/04/14 11:58:55;;;;;;;11.50;8.30;;;16.20;51.40;;;;;;5075720;28;20999;-79
2021/04/14 12:01:24;;;;;;;11.23;9.00;;;15.30;52.50;;;;;;5068849;28;20443;-79
2021/04/14 12:03:50;;;;;;;10.73;9.13;;;14.90;53.40;;;;;;5086906;28;20519;-80
2021/04/14 12:06:15;;;;;;;11.60;8.93;;;14.30;55.50;;;;;;5087142;28;20178;-79
2021/04/14 12:08:41;;;;;;;9.17;7.77;;;13.80;59.30;;;;;;5072213;28;20419;-79
2021/04/14 12:11:17;;;;;;;8.33;7.53;;;13.60;63.00;;;;;;5080872;28;20209;-79
2021/04/14 12:13:42;;;;;;;10.10;9.10;;;13.50;64.00;;;;;;5095093;28;20162;-79
2021/04/14 12:16:08;;;;;;;11.20;8.47;;;13.40;64.60;;;;;;5084113;28;20557;-79
2021/04/14 12:18:33;;;;;;;9.27;8.30;;;13.50;65.20;;;;;;5080365;28;20173;-79
2021/04/14 12:26:27;;;;;;;10.50;9.20;;;14.10;65.10;;;;;;5157147;22;20473;-79
2021/04/14 12:29:14;;;;;;;10.47;8.93;;;14.40;57.90;;;;;;5021175;28;20959;-79
2021/04/14 12:31:54;;;;;;;9.63;8.73;;;14.80;56.10;;;;;;5077216;28;20452;-80
2021/04/14 12:34:33;;;;;;;10.50;8.90;;;15.00;56.30;;;;;;5083252;28;20420;-79
2021/04/14 12:36:59;;;;;;;9.00;8.10;;;15.40;54.70;;;;;;5074082;28;20422;-80
2021/04/14 12:39:25;;;;;;;12.00;9.00;;;15.60;54.60;;;;;;5087166;28;20907;-80
2021/04/14 12:41:51;;;;;;;12.57;9.80;;;15.90;52.80;;;;;;5071987;28;20229;-80
2021/04/14 12:44:19;;;;;;;9.37;8.37;;;15.80;52.90;;;;;;5072542;28;20416;-79
2021/04/14 12:46:47;;;;;;;8.87;8.07;;;16.10;51.30;;;;;;5070790;28;20425;-79
2021/04/14 12:49:16;;;;;;;9.27;7.40;;;15.90;52.10;;;;;;5073166;28;20573;-80
2021/04/14 12:52:08;;;;;;;7.43;6.73;;;15.50;50.90;;;;;;5072546;28;20447;-79
2021/04/14 12:54:35;;;;;;;8.00;7.23;;;15.30;49.70;;;;;;5073820;28;20825;-79
2021/04/14 12:57:34;;;;;;;10.63;8.50;;;15.20;50.90;;;;;;5073186;28;20413;-78
2021/04/14 13:00:15;;;;;;;12.40;8.50;;;15.40;51.60;;;;;;5043011;28;20439;-79
2021/04/14 13:02:46;;;;;;;8.93;8.13;;;15.40;51.50;;;;;;5090558;28;20451;-78
2021/04/14 13:05:23;;;;;;;8.27;7.47;;;15.40;51.60;;;;;;5084040;28;20449;-79
2021/04/14 13:08:12;;;;;;;10.03;7.70;;;15.60;50.80;;;;;;5096420;28;20462;-79
2021/04/14 13:10:45;;;;;;;8.70;7.80;;;16.00;50.40;;;;;;5080829;28;20455;-79
2021/04/14 13:13:11;;;;;;;9.67;8.67;;;16.40;49.80;;;;;;5078690;28;20511;-79
2021/04/14 13:15:45;;;;;;;10.07;8.50;;;16.50;49.00;;;;;;5088501;28;20507;-78
2021/04/14 13:18:11;;;;;;;8.60;7.80;;;16.90;47.90;;;;;;5081737;28;20415;-78